Fairacres, New Mexico
Current Conditions -  °F | °C
As of 7:55 AM on Monday 24 Nov 2014 (Local Time) from KLRU Reporting Station
Clear Clear  
Wind Chill: 34°   Ceiling: Unl
Heat Index: 38°   Visibility: 10mi
Dew Point: -1°   Wind: 6mph
Humidity: 19%   Direction: 10°N
Pressure: 30.19"   Gusts: NA
Location:  32.31°N, 106.84°W
Report Text: KLRU 241455Z AUTO 01005KT 10SM CLR 04/M18 A3019 RMK AO2 T00361184 PWINO
Loading
Personal Weather Stations






























Interactive Weather Map New forecast layout! Learn more

10-Day Weather Forecast

Advertisements
Track Severe Weather on mobile